createdAt,value
2016-02-17T00:02:15.922Z,-4.3
2016-02-17T00:05:32.978Z,-4.3
2016-02-17T00:08:36.129Z,-4.3
2016-02-17T00:11:49.279Z,-4.3
2016-02-17T00:15:00.662Z,-4.4
2016-02-17T00:18:12.434Z,-4.4
2016-02-17T00:21:30.473Z,-4.4
2016-02-17T00:24:38.656Z,-4.4
2016-02-17T00:27:41.712Z,-4.4
2016-02-17T00:30:52.490Z,-4.4
2016-02-17T00:34:05.608Z,-4.4
2016-02-17T00:37:18.554Z,-4.4
2016-02-17T00:40:36.080Z,-4.5
2016-02-17T00:43:39.243Z,-4.5
2016-02-17T00:46:50.424Z,-4.5
2016-02-17T00:50:00.292Z,-4.5
2016-02-17T00:53:10.205Z,-4.5
2016-02-17T00:56:20.198Z,-4.5
2016-02-17T00:59:37.630Z,-4.5
2016-02-17T01:02:40.827Z,-4.6
2016-02-17T01:05:53.849Z,-4.6
2016-02-17T01:09:06.233Z,-4.7
2016-02-17T01:12:18.944Z,-4.7
2016-02-17T01:15:36.640Z,-4.7
2016-02-17T01:18:40.213Z,-4.7
2016-02-17T01:21:53.064Z,-4.6
2016-02-17T01:25:04.714Z,-4.6
2016-02-17T01:28:16.081Z,-4.6
2016-02-17T01:31:34.011Z,-4.6
2016-02-17T01:34:37.035Z,-4.7
2016-02-17T01:37:50.077Z,-4.7
2016-02-17T01:41:02.851Z,-4.7
2016-02-17T01:44:10.718Z,-4.7
2016-02-17T01:47:30.867Z,-4.7
2016-02-17T01:50:33.984Z,-4.7
2016-02-17T01:53:47.089Z,-4.8
2016-02-17T01:56:57.737Z,-4.8
2016-02-17T02:00:08.105Z,-4.9
2016-02-17T02:03:18.222Z,-4.9
2016-02-17T02:06:32.793Z,-4.9
2016-02-17T02:09:35.926Z,-5
2016-02-17T02:12:46.249Z,-5
2016-02-17T02:15:58.882Z,-5
2016-02-17T02:19:09.624Z,-4.9
2016-02-17T02:22:22.320Z,-4.9
2016-02-17T02:25:35.157Z,-5
2016-02-17T02:28:47.871Z,-5
2016-02-17T02:31:59.989Z,-5.1
2016-02-17T02:35:12.684Z,-5.1
2016-02-17T02:38:22.114Z,-5.1
2016-02-17T02:41:37.200Z,-5.1
2016-02-17T02:44:39.974Z,-5
2016-02-17T02:47:51.828Z,-4.9
2016-02-17T02:51:01.024Z,-4.9
2016-02-17T02:54:11.313Z,-4.9
2016-02-17T02:57:23.197Z,-4.9
2016-02-17T03:00:34.251Z,-4.8
2016-02-17T03:03:46.934Z,-4.8
2016-02-17T03:06:59.645Z,-4.8
2016-02-17T03:10:11.841Z,-4.8
2016-02-17T03:13:23.489Z,-4.8
2016-02-17T03:16:36.233Z,-4.8
2016-02-17T03:19:48.789Z,-4.8
2016-02-17T03:22:56.844Z,-4.9
2016-02-17T03:26:11.102Z,-4.9
2016-02-17T03:29:23.517Z,-4.9
2016-02-17T03:32:35.635Z,-4.9
2016-02-17T03:35:47.770Z,-4.8
2016-02-17T03:38:56.731Z,-4.8
2016-02-17T03:42:09.489Z,-4.8
2016-02-17T03:45:18.544Z,-4.8
2016-02-17T03:48:32.318Z,-4.8
2016-02-17T03:51:34.435Z,-4.7
2016-02-17T03:54:46.462Z,-4.8
2016-02-17T03:57:56.891Z,-4.8
2016-02-17T04:01:08.932Z,-4.9
2016-02-17T04:04:24.752Z,-4.9
2016-02-17T04:07:34.806Z,-4.9
2016-02-17T04:10:36.768Z,-4.9
2016-02-17T04:13:48.591Z,-4.9
2016-02-17T04:17:00.427Z,-4.9
2016-02-17T04:20:12.232Z,-5
2016-02-17T04:23:21.741Z,-5
2016-02-17T04:26:35.577Z,-5.1
2016-02-17T04:29:45.006Z,-5.1
2016-02-17T04:32:56.736Z,-5
2016-02-17T04:36:11.665Z,-5
2016-02-17T04:39:18.518Z,-5
2016-02-17T04:42:31.603Z,-5.1
2016-02-17T04:45:38.377Z,-5.1
2016-02-17T04:48:40.105Z,-5.2
2016-02-17T04:51:51.475Z,-5.2
2016-02-17T04:55:00.999Z,-5.2
2016-02-17T04:58:11.771Z,-5.2
2016-02-17T05:01:22.515Z,-5.2
2016-02-17T05:04:35.366Z,-5.2
2016-02-17T05:07:36.249Z,-5.2
2016-02-17T05:10:44.976Z,-5.1
2016-02-17T05:13:55.017Z,-5.1
2016-02-17T05:17:02.776Z,-5.1
2016-02-17T05:20:11.331Z,-5
2016-02-17T05:23:21.792Z,-5
2016-02-17T05:26:37.660Z,-5
2016-02-17T05:29:38.355Z,-5
2016-02-17T05:32:49.348Z,-5
2016-02-17T05:35:59.734Z,-5
2016-02-17T05:39:10.304Z,-5
2016-02-17T05:42:20.781Z,-5
2016-02-17T05:45:36.508Z,-5
2016-02-17T05:48:37.078Z,-5
2016-02-17T05:51:48.164Z,-5
2016-02-17T05:54:59.378Z,-5
2016-02-17T05:58:07.636Z,-5
2016-02-17T06:01:18.598Z,-5
2016-02-17T06:04:34.605Z,-5
2016-02-17T06:07:35.693Z,-5
2016-02-17T06:10:45.153Z,-5
2016-02-17T06:13:56.180Z,-5
2016-02-17T06:17:04.062Z,-5
2016-02-17T06:20:14.712Z,-5
2016-02-17T06:23:30.626Z,-5
2016-02-17T06:26:36.681Z,-4.9
2016-02-17T06:29:37.876Z,-4.9
2016-02-17T06:32:48.713Z,-4.7
2016-02-17T06:35:57.957Z,-4.7
2016-02-17T06:39:09.185Z,-4.6
2016-02-17T06:42:16.990Z,-4.6
2016-02-17T06:45:33.403Z,-4.5
2016-02-17T06:48:32.849Z,-4.4
2016-02-17T06:51:46.061Z,-4.3
2016-02-17T06:54:57.259Z,-4.2
2016-02-17T06:58:06.625Z,-4.1
2016-02-17T07:01:17.758Z,-4
2016-02-17T07:04:32.298Z,-3.9
2016-02-17T07:07:38.619Z,-3.9
2016-02-17T07:10:40.065Z,-3.8
2016-02-17T07:13:51.182Z,-3.7
2016-02-17T07:17:00.662Z,-3.6
2016-02-17T07:20:08.248Z,-3.5
2016-02-17T07:23:19.661Z,-3.4
2016-02-17T07:26:35.889Z,-3.2
2016-02-17T07:29:37.334Z,-3
2016-02-17T07:32:48.687Z,-2.8
2016-02-17T07:35:58.054Z,-2.7
2016-02-17T07:39:07.955Z,-2.5
2016-02-17T07:42:19.541Z,-1.9
2016-02-17T07:45:36.987Z,-0.1
2016-02-17T07:48:39.464Z,1.4
2016-02-17T07:51:52.576Z,2.8
2016-02-17T07:55:04.689Z,3
2016-02-17T07:58:16.977Z,3.7
2016-02-17T08:01:34.101Z,4.4
2016-02-17T08:04:36.652Z,4.5
2016-02-17T08:07:49.220Z,4.8
2016-02-17T08:10:58.460Z,4.7
2016-02-17T08:14:07.157Z,3.8
2016-02-17T08:17:19.556Z,4.5
2016-02-17T08:20:36.907Z,5.6
2016-02-17T08:23:39.571Z,6.1
2016-02-17T08:26:51.815Z,6.9
2016-02-17T08:30:02.497Z,8.5
2016-02-17T08:33:17.942Z,10.8
2016-02-17T08:36:32.779Z,12
2016-02-17T08:39:36.693Z,12.3
2016-02-17T08:42:50.201Z,13
2016-02-17T08:46:02.023Z,15
2016-02-17T08:49:16.423Z,15
2016-02-17T08:52:34.166Z,16
2016-02-17T08:55:39.096Z,16.5
2016-02-17T08:58:51.822Z,16.7
2016-02-17T09:02:03.846Z,17.6
2016-02-17T09:05:20.357Z,17.7
2016-02-17T09:08:34.490Z,16.9
2016-02-17T09:11:45.826Z,16.3
2016-02-17T09:14:59.445Z,16
2016-02-17T09:18:12.923Z,15.4
2016-02-17T09:21:29.806Z,16.2
2016-02-17T09:24:38.611Z,16.1
2016-02-17T09:27:42.791Z,17.3
2016-02-17T09:30:56.502Z,18.1
2016-02-17T09:34:10.541Z,18.5
2016-02-17T09:37:22.178Z,18.2
2016-02-17T09:40:35.373Z,17.6
2016-02-17T09:43:48.303Z,16.8
2016-02-17T09:46:59.155Z,16.6
2016-02-17T09:50:11.272Z,16.2
2016-02-17T09:53:22.877Z,15.6
2016-02-17T09:56:38.197Z,13.5
2016-02-17T09:59:41.394Z,11.5
2016-02-17T10:02:54.042Z,10.1
2016-02-17T10:06:06.659Z,8
2016-02-17T10:09:14.323Z,7.5
2016-02-17T10:12:33.928Z,7.6
2016-02-17T10:15:36.984Z,7.6
2016-02-17T10:18:46.491Z,7
2016-02-17T10:21:57.202Z,6.8
2016-02-17T10:25:08.538Z,6.6
2016-02-17T10:28:19.830Z,6
2016-02-17T10:31:35.495Z,5.6
2016-02-17T10:34:38.941Z,5.3
2016-02-17T10:37:49.793Z,5.5
2016-02-17T10:41:03.004Z,5.5
2016-02-17T10:44:16.469Z,4.9
2016-02-17T10:47:31.566Z,4.6
2016-02-17T10:50:35.277Z,4.1
2016-02-17T10:53:48.395Z,3.6
2016-02-17T10:57:01.179Z,3.1
2016-02-17T11:00:11.312Z,2.9
2016-02-17T11:03:22.304Z,2.9
2016-02-17T11:06:35.374Z,2.8
2016-02-17T11:09:46.965Z,2.9
2016-02-17T11:12:59.659Z,3
2016-02-17T11:16:12.449Z,2.8
2016-02-17T11:19:30.239Z,2.7
2016-02-17T11:22:38.372Z,2.6
2016-02-17T11:25:41.473Z,2.4
2016-02-17T11:28:53.641Z,2.4
2016-02-17T11:32:03.445Z,2.7
2016-02-17T11:35:15.766Z,2.5
2016-02-17T11:38:32.336Z,2.6
2016-02-17T11:41:34.969Z,2.7
2016-02-17T11:44:47.274Z,2.9
2016-02-17T11:47:59.833Z,3
2016-02-17T11:51:12.529Z,3.3
2016-02-17T11:54:30.084Z,3.3
2016-02-17T11:57:37.654Z,3.2
2016-02-17T12:00:40.100Z,3
2016-02-17T12:03:50.076Z,2.8
2016-02-17T12:07:02.495Z,2.6
2016-02-17T12:10:14.975Z,2.5
2016-02-17T12:13:23.905Z,2.5
2016-02-17T12:16:36.147Z,2.7
2016-02-17T12:19:45.999Z,2.9
2016-02-17T12:22:58.538Z,3.1
2016-02-17T12:26:09.690Z,3.2
2016-02-17T12:29:19.072Z,3.3
2016-02-17T12:32:36.378Z,3.3
2016-02-17T12:35:39.058Z,3.3
2016-02-17T12:38:51.644Z,3.4
2016-02-17T12:42:03.467Z,3.3
2016-02-17T12:45:14.569Z,3.2
2016-02-17T12:48:23.687Z,3
2016-02-17T12:51:35.741Z,3
2016-02-17T12:54:44.796Z,3.2
2016-02-17T12:57:55.742Z,3.3
2016-02-17T13:01:05.003Z,3.3
2016-02-17T13:04:17.339Z,3.3
2016-02-17T13:07:31.988Z,3.4
2016-02-17T13:10:34.480Z,3.5
2016-02-17T13:13:46.941Z,3.3
2016-02-17T13:16:56.277Z,3.2
2016-02-17T13:20:05.819Z,3.2
2016-02-17T13:23:13.577Z,3.2
2016-02-17T13:26:33.070Z,3.3
2016-02-17T13:29:35.500Z,3.5
2016-02-17T13:32:44.555Z,3.5
2016-02-17T13:35:56.314Z,3.6
2016-02-17T13:39:08.558Z,3.5
2016-02-17T13:42:20.253Z,3.5
2016-02-17T13:45:37.621Z,3.3
2016-02-17T13:48:40.144Z,3.4
2016-02-17T13:51:49.574Z,3.4
2016-02-17T13:55:00.223Z,3.4
2016-02-17T13:58:11.859Z,3.3
2016-02-17T14:01:21.961Z,3.2
2016-02-17T14:04:38.625Z,2.9
2016-02-17T14:07:41.070Z,2.8
2016-02-17T14:10:50.203Z,2.4
2016-02-17T14:14:02.305Z,2.3
2016-02-17T14:17:12.051Z,2.3
2016-02-17T14:20:22.480Z,2.3
2016-02-17T14:23:34.239Z,2.2
2016-02-17T14:26:46.543Z,2.2
2016-02-17T14:29:58.911Z,2.1
2016-02-17T14:33:08.626Z,2
2016-02-17T14:36:20.368Z,2
2016-02-17T14:39:34.719Z,1.8
2016-02-17T14:42:36.806Z,1.7
2016-02-17T14:45:49.047Z,1.6
2016-02-17T14:49:01.227Z,1.6
2016-02-17T14:52:13.521Z,1.4
2016-02-17T14:55:30.404Z,1.3
2016-02-17T14:58:37.598Z,1.2
2016-02-17T15:01:39.748Z,1.2
2016-02-17T15:04:48.395Z,1.1
2016-02-17T15:08:00.310Z,1.1
2016-02-17T15:11:12.025Z,1.1
2016-02-17T15:14:23.704Z,1.1
2016-02-17T15:17:35.102Z,1.1
2016-02-17T15:20:43.220Z,0.9
2016-02-17T15:23:56.899Z,0.9
2016-02-17T15:27:06.958Z,0.8
2016-02-17T15:30:18.576Z,0.7
2016-02-17T15:33:33.223Z,0.5
2016-02-17T15:36:34.434Z,0.3
2016-02-17T15:39:45.615Z,0.1
2016-02-17T15:42:54.044Z,0
2016-02-17T15:46:04.788Z,-0.1
2016-02-17T15:49:12.766Z,-0.2
2016-02-17T15:52:21.024Z,-0.2
2016-02-17T15:55:39.221Z,-0.3
2016-02-17T15:58:40.244Z,-0.3
2016-02-17T16:01:49.346Z,-0.4
2016-02-17T16:04:59.823Z,-0.5
2016-02-17T16:08:08.537Z,-0.5
2016-02-17T16:11:21.217Z,-0.6
2016-02-17T16:14:33.647Z,-0.6
2016-02-17T16:17:39.467Z,-0.7
2016-02-17T16:20:40.100Z,-0.7
2016-02-17T16:23:51.218Z,-0.8
2016-02-17T16:27:02.632Z,-0.8
2016-02-17T16:30:13.737Z,-0.8
2016-02-17T16:33:24.354Z,-0.8
2016-02-17T16:36:38.409Z,-0.9
2016-02-17T16:39:39.214Z,-0.9
2016-02-17T16:42:48.347Z,-0.8
2016-02-17T16:45:59.495Z,-0.8
2016-02-17T16:49:09.819Z,-0.8
2016-02-17T16:52:20.921Z,-0.8
2016-02-17T16:55:36.723Z,-0.8
2016-02-17T16:58:37.945Z,-0.7
2016-02-17T17:01:48.269Z,-0.7
2016-02-17T17:04:56.217Z,-0.8
2016-02-17T17:08:05.469Z,-0.7
2016-02-17T17:11:13.428Z,-0.7
2016-02-17T17:14:29.620Z,-0.6
2016-02-17T17:17:35.830Z,-0.6
2016-02-17T17:20:36.978Z,-0.6
2016-02-17T17:23:46.376Z,-0.6
2016-02-17T17:26:59.729Z,-0.6
2016-02-17T17:30:11.614Z,-0.6
2016-02-17T17:33:22.232Z,-0.6
2016-02-17T17:36:38.615Z,-0.6
2016-02-17T17:39:39.982Z,-0.6
2016-02-17T17:42:48.585Z,-0.7
2016-02-17T17:45:59.593Z,-0.6
2016-02-17T17:49:10.447Z,-0.6
2016-02-17T17:52:19.189Z,-0.6
2016-02-17T17:58:36.721Z,-0.6
2016-02-17T18:01:48.042Z,-0.6
2016-02-17T18:04:57.018Z,-0.7
2016-02-17T18:08:08.327Z,-0.7
2016-02-17T18:11:16.444Z,-0.7
2016-02-17T18:14:32.967Z,-0.6
2016-02-17T18:17:39.006Z,-0.6
2016-02-17T18:20:40.139Z,-0.6
2016-02-17T18:23:49.476Z,-0.6
2016-02-17T18:26:58.718Z,-0.6
2016-02-17T18:30:09.978Z,-0.6
2016-02-17T18:33:18.752Z,-0.6
2016-02-17T18:36:32.526Z,-0.6
2016-02-17T18:39:38.785Z,-0.6
2016-02-17T18:42:40.136Z,-0.6
2016-02-17T18:45:49.441Z,-0.6
2016-02-17T18:49:02.949Z,-0.6
2016-02-17T18:52:11.757Z,-0.6
2016-02-17T18:55:22.828Z,-0.6
2016-02-17T18:58:39.289Z,-0.6
2016-02-17T19:01:40.515Z,-0.5
2016-02-17T19:04:50.131Z,-0.5
2016-02-17T19:07:58.404Z,-0.5
2016-02-17T19:11:06.178Z,-0.5
2016-02-17T19:14:17.111Z,-0.4
2016-02-17T19:17:33.072Z,-0.4
2016-02-17T19:20:39.189Z,-0.4
2016-02-17T19:23:40.463Z,-0.3
2016-02-17T19:26:51.847Z,-0.3
2016-02-17T19:30:02.510Z,-0.3
2016-02-17T19:33:10.770Z,-0.3
2016-02-17T19:36:22.248Z,-0.4
2016-02-17T19:39:38.819Z,-0.3
2016-02-17T19:42:40.155Z,-0.4
2016-02-17T19:45:48.835Z,-0.5
2016-02-17T19:48:58.452Z,-0.5
2016-02-17T19:52:09.054Z,-0.5
2016-02-17T19:55:17.143Z,-0.5
2016-02-17T19:58:33.436Z,-0.4
2016-02-17T20:01:34.928Z,-0.4
2016-02-17T20:04:46.296Z,-0.4
2016-02-17T20:07:54.977Z,-0.4
2016-02-17T20:11:06.297Z,-0.4
2016-02-17T20:14:17.574Z,-0.4
2016-02-17T20:17:30.722Z,-0.4
2016-02-17T20:20:37.012Z,-0.4
2016-02-17T20:23:38.238Z,-0.3
2016-02-17T20:26:49.388Z,-0.4
2016-02-17T20:29:58.958Z,-0.4
2016-02-17T20:33:10.404Z,-0.4
2016-02-17T20:36:18.462Z,-0.4
2016-02-17T20:39:31.235Z,-0.4
2016-02-17T20:45:38.782Z,-0.4
2016-02-17T20:48:46.555Z,-0.4
2016-02-17T20:51:52.626Z,-0.3
2016-02-17T20:55:05.696Z,-0.3
2016-02-17T20:58:16.973Z,-0.3
2016-02-17T21:01:33.123Z,-0.3
2016-02-17T21:04:34.645Z,-0.3
2016-02-17T21:07:45.779Z,-0.3
2016-02-17T21:10:57.067Z,-0.3
2016-02-17T21:14:08.451Z,-0.3
2016-02-17T21:17:17.133Z,-0.3
2016-02-17T21:20:33.485Z,-0.3
2016-02-17T21:23:34.885Z,-0.3
2016-02-17T21:26:43.236Z,-0.3
2016-02-17T21:29:52.010Z,-0.3
2016-02-17T21:33:03.221Z,-0.3
2016-02-17T21:36:14.529Z,-0.3
2016-02-17T21:39:22.553Z,-0.3
2016-02-17T21:42:36.342Z,-0.4
2016-02-17T21:45:37.694Z,-0.4
2016-02-17T21:48:46.951Z,-0.4
2016-02-17T21:51:57.944Z,-0.4
2016-02-17T21:55:06.561Z,-0.4
2016-02-17T21:58:18.026Z,-0.4
2016-02-17T22:01:32.112Z,-0.3
2016-02-17T22:04:38.292Z,-0.3
2016-02-17T22:07:37.705Z,-0.4
2016-02-17T22:10:51.401Z,-0.4
2016-02-17T22:14:01.550Z,-0.3
2016-02-17T22:17:12.685Z,-0.3
2016-02-17T22:20:23.944Z,-0.3
2016-02-17T22:23:34.936Z,-0.2
2016-02-17T22:26:44.179Z,-0.2
2016-02-17T22:29:54.999Z,-0.2
2016-02-17T22:33:05.992Z,-0.2
2016-02-17T22:36:17.081Z,-0.1
2016-02-17T22:39:33.167Z,-0.2
2016-02-17T22:42:39.409Z,-0.2
2016-02-17T22:45:40.777Z,-0.2
2016-02-17T22:48:50.117Z,-0.1
2016-02-17T22:51:59.048Z,-0.1
2016-02-17T22:55:10.509Z,0
2016-02-17T22:58:21.550Z,0
2016-02-17T23:01:37.324Z,0.1
2016-02-17T23:04:38.675Z,0.1
2016-02-17T23:07:46.465Z,0.1
2016-02-17T23:10:57.363Z,0.1
2016-02-17T23:14:08.231Z,0.1
2016-02-17T23:17:19.726Z,0.1
2016-02-17T23:20:35.797Z,0.2
2016-02-17T23:23:37.711Z,0.2
2016-02-17T23:26:46.625Z,0.2
2016-02-17T23:29:56.492Z,0.2
2016-02-17T23:33:08.141Z,0.2
2016-02-17T23:36:19.574Z,0.1
2016-02-17T23:39:36.176Z,0.1
2016-02-17T23:42:37.949Z,0.1
2016-02-17T23:45:49.410Z,0.2
2016-02-17T23:49:00.888Z,0.2
2016-02-17T23:52:10.537Z,0.2
2016-02-17T23:55:21.906Z,0.2
2016-02-17T23:58:38.414Z,0.1
